Time;durP1;ratioP1;P1;durP2;ratioP2;P2;SDS_P1;SDS_P2;PMS_P1;PMS_P2;Temp;Humidity;BMP_temperature;BMP_pressure;BME280_temperature;BME280_humidity;BME280_pressure;Samples;Min_cycle;Max_cycle;Signal;HPM_P1;HPM_P2
2024/01/21 00:01:25;;;;;;;;;;;;;;;0.55;83.88;102208.23;104279;1299;73458;-56
2024/01/21 00:04:11;;;;;;;;;;;;;;;0.51;83.92;102207.36;104345;1293;67312;-53
2024/01/21 00:06:58;;;;;;;;;;;;;;;0.45;83.85;102206.77;104269;1293;71199;-54
2024/01/21 00:09:44;;;;;;;;;;;;;;;0.38;83.93;102213.51;104259;1295;61913;-53
2024/01/21 00:12:30;;;;;;;;;;;;;;;0.31;83.94;102217.72;104326;1297;61337;-55
2024/01/21 00:15:16;;;;;;;;;;;;;;;0.23;83.81;102223.78;104411;1294;74414;-56
2024/01/21 00:18:02;;;;;;;;;;;;;;;0.16;84.06;102226.11;104357;1294;67299;-54
2024/01/21 00:20:48;;;;;;;;;;;;;;;0.11;83.99;102226.17;104233;1293;74105;-56
2024/01/21 00:23:34;;;;;;;;;;;;;;;0.09;84.07;102231.16;104318;1293;61240;-55
2024/01/21 00:26:21;;;;;;;;;;;;;;;0.08;84.27;102235.83;104352;1293;61705;-56
2024/01/21 00:29:07;;;;;;;;;;;;;;;0.05;84.22;102240.28;104230;1293;75335;-54
2024/01/21 00:31:53;;;;;;;;;;;;;;;0.07;84.23;102242.23;104285;1296;67346;-55
2024/01/21 00:34:40;;;;;;;;;;;;;;;0.10;84.28;102245.60;104269;1294;71360;-54
2024/01/21 00:37:26;;;;;;;;;;;;;;;0.09;84.29;102246.77;104151;1293;97314;-53
2024/01/21 00:40:12;;;;;;;;;;;;;;;0.12;84.29;102245.23;104349;1293;60394;-54
2024/01/21 00:42:59;;;;;;;;;;;;;;;0.15;84.34;102241.64;104311;1293;73345;-53
2024/01/21 00:45:45;;;;;;;;;;;;;;;0.17;84.39;102240.58;104339;1293;67268;-52
2024/01/21 00:48:31;;;;;;;;;;;;;;;0.19;84.28;102240.69;104333;1294;71265;-55
2024/01/21 00:51:17;;;;;;;;;;;;;;;0.23;84.26;102243.39;105605;1293;59015;-56
2024/01/21 00:54:03;;;;;;;;;;;;;;;0.25;84.57;102240.17;105596;1293;59278;-56
2024/01/21 00:56:49;;;;;;;;;;;;;;;0.29;84.54;102241.04;105634;1293;73917;-55
2024/01/21 00:59:35;;;;;;;;;;;;;;;0.34;84.45;102244.84;105505;1296;67726;-56
2024/01/21 01:02:21;;;;;;;;;;;;;;;0.39;84.48;102246.30;105592;1293;72347;-55
2024/01/21 01:05:07;;;;;;;;;;;;;;;0.44;84.54;102244.01;105537;1296;59404;-54
2024/01/21 01:07:53;;;;;;;;;;;;;;;0.48;84.60;102246.77;105603;1298;59051;-56
2024/01/21 01:10:38;;;;;;;;;;;;;;;0.51;84.57;102248.60;105530;1296;72849;-55
2024/01/21 01:13:24;;;;;;;;;;;;;;;0.52;84.47;102250.19;104337;1293;69405;-54
2024/01/21 01:16:11;;;;;;;;;;;;;;;0.56;84.57;102249.71;104395;1297;71371;-55
2024/01/21 01:18:57;;;;;;;;;;;;;;;0.57;84.56;102250.27;104323;1293;61141;-55
2024/01/21 01:21:43;;;;;;;;;;;;;;;0.57;84.52;102252.48;104426;1294;63762;-51
2024/01/21 01:24:29;;;;;;;;;;;;;;;0.57;84.55;102249.73;104321;1293;76013;-53
2024/01/21 01:27:15;;;;;;;;;;;;;;;0.56;84.71;102248.67;104329;1293;70055;-55
2024/01/21 01:30:02;;;;;;;;;;;;;;;0.55;84.56;102250.33;104304;1292;73956;-54
2024/01/21 01:32:48;;;;;;;;;;;;;;;0.55;84.65;102253.35;104315;1295;61112;-53
2024/01/21 01:35:34;;;;;;;;;;;;;;;0.53;84.58;102257.19;104357;1293;61144;-54
2024/01/21 01:38:20;;;;;;;;;;;;;;;0.53;84.56;102261.90;104333;1293;73246;-51
2024/01/21 01:41:06;;;;;;;;;;;;;;;0.48;84.55;102269.15;104299;1293;67244;-54
2024/01/21 01:43:52;;;;;;;;;;;;;;;0.45;84.59;102271.23;104293;1293;71275;-52
2024/01/21 01:46:38;;;;;;;;;;;;;;;0.43;84.69;102269.08;104304;1298;60135;-54
2024/01/21 01:49:26;;;;;;;;;;;;;;;0.42;84.61;102268.15;104224;1294;62144;-55
2024/01/21 01:52:13;;;;;;;;;;;;;;;0.41;84.73;102269.48;105627;1293;73276;-55
2024/01/21 01:54:59;;;;;;;;;;;;;;;0.40;84.74;102271.08;105362;1292;299840;-53
2024/01/21 01:57:45;;;;;;;;;;;;;;;0.41;84.76;102263.84;105529;1293;72519;-52
2024/01/21 02:00:31;;;;;;;;;;;;;;;0.40;84.76;102265.98;105523;1293;59488;-55
2024/01/21 02:03:17;;;;;;;;;;;;;;;0.39;84.90;102269.54;105543;1293;58919;-55
2024/01/21 02:06:03;;;;;;;;;;;;;;;0.43;84.81;102267.69;104235;1293;73885;-55
2024/01/21 02:08:49;;;;;;;;;;;;;;;0.41;85.09;102268.63;104240;1294;67167;-52
2024/01/21 02:11:43;;;;;;;;;;;;;;;0.40;84.91;102264.81;94419;1294;10002224;-55
2024/01/21 02:14:59;;;;;;;;;;;;;;;0.39;84.88;102270.22;68243;1296;20059344;-55
2024/01/21 02:17:45;;;;;;;;;;;;;;;0.37;84.88;102273.14;104269;1295;61201;-55
2024/01/21 02:20:33;;;;;;;;;;;;;;;0.33;84.94;102277.04;104294;1293;76108;-54
2024/01/21 02:23:19;;;;;;;;;;;;;;;0.27;85.05;102283.34;104313;1298;67299;-53
2024/01/21 02:26:06;;;;;;;;;;;;;;;0.21;84.90;102278.08;104278;1295;71085;-54
2024/01/21 02:28:52;;;;;;;;;;;;;;;0.12;84.94;102279.48;104235;1293;61221;-55
2024/01/21 02:31:38;;;;;;;;;;;;;;;0.05;84.81;102282.29;104298;1293;63445;-53
2024/01/21 02:34:25;;;;;;;;;;;;;;;-0.02;84.87;102282.48;104209;1298;77128;-55
2024/01/21 02:37:11;;;;;;;;;;;;;;;-0.10;84.72;102283.23;104277;1293;68640;-54
2024/01/21 02:39:57;;;;;;;;;;;;;;;-0.21;84.97;102281.64;104253;1293;75109;-54
2024/01/21 02:42:43;;;;;;;;;;;;;;;-0.34;84.97;102282.29;104254;1293;61301;-55
2024/01/21 02:45:29;;;;;;;;;;;;;;;-0.43;84.77;102280.39;104271;1293;61248;-54
2024/01/21 02:48:15;;;;;;;;;;;;;;;-0.53;84.72;102282.39;104251;1294;73322;-55
2024/01/21 02:51:01;;;;;;;;;;;;;;;-0.62;84.77;102284.45;104293;1293;70004;-53
2024/01/21 02:53:47;;;;;;;;;;;;;;;-0.71;84.82;102283.27;104292;1293;74309;-54
2024/01/21 02:56:34;;;;;;;;;;;;;;;-0.82;85.01;102286.66;104311;1296;61675;-55
2024/01/21 02:59:20;;;;;;;;;;;;;;;-0.90;85.11;102287.28;104311;1297;59850;-52
2024/01/21 03:02:06;;;;;;;;;;;;;;;-0.99;85.19;102287.22;104305;1293;77196;-51
2024/01/21 03:04:52;;;;;;;;;;;;;;;-1.08;85.41;102288.97;104276;1293;68890;-53
2024/01/21 03:07:38;;;;;;;;;;;;;;;-1.15;85.16;102295.66;104293;1293;71740;-54
2024/01/21 03:10:24;;;;;;;;;;;;;;;-1.23;85.11;102292.11;104245;1294;61141;-54
2024/01/21 03:13:10;;;;;;;;;;;;;;;-1.29;85.01;102291.25;104289;1294;61181;-54
2024/01/21 03:15:56;;;;;;;;;;;;;;;-1.37;84.92;102301.32;104218;1298;73902;-52
2024/01/21 03:18:43;;;;;;;;;;;;;;;-1.43;85.04;102306.20;104245;1297;69380;-52
2024/01/21 03:21:29;;;;;;;;;;;;;;;-1.53;85.34;102306.60;104227;1293;71417;-55
2024/01/21 03:24:15;;;;;;;;;;;;;;;-1.58;85.36;102305.30;104228;1296;61260;-55
2024/01/21 03:27:20;;;;;;;;;;;;;;;-1.61;84.89;102306.45;81667;1294;10002569;-55
2024/01/21 03:30:26;;;;;;;;;;;;;;;-1.69;85.40;102305.80;83593;1293;20072025;-56
2024/01/21 03:33:12;;;;;;;;;;;;;;;-1.76;85.51;102303.36;105544;1293;60024;-56
2024/01/21 03:35:58;;;;;;;;;;;;;;;-1.85;85.12;102301.46;105545;1295;59597;-56
2024/01/21 03:38:45;;;;;;;;;;;;;;;-1.92;85.10;102299.29;105497;1293;74078;-56
2024/01/21 03:41:31;;;;;;;;;;;;;;;-1.93;85.07;102300.23;105567;1293;68567;-56
2024/01/21 03:44:17;;;;;;;;;;;;;;;-1.95;85.23;102296.60;105034;1296;73619;-56
2024/01/21 03:47:03;;;;;;;;;;;;;;;-1.97;85.41;102297.29;104215;1298;61310;-54
2024/01/21 03:49:51;;;;;;;;;;;;;;;-2.01;85.24;102296.40;104286;1293;61273;-53
2024/01/21 03:52:37;;;;;;;;;;;;;;;-2.09;84.87;102292.05;104250;1293;73263;-54
2024/01/21 03:55:23;;;;;;;;;;;;;;;-2.15;84.75;102297.09;104311;1297;67253;-56
2024/01/21 03:58:09;;;;;;;;;;;;;;;-2.23;84.93;102303.02;104277;1293;71615;-56
2024/01/21 04:00:56;;;;;;;;;;;;;;;-2.27;84.92;102304.57;104338;1299;61175;-55
2024/01/21 04:03:42;;;;;;;;;;;;;;;-2.33;84.78;102297.64;104797;1294;615877;-57
2024/01/21 04:06:28;;;;;;;;;;;;;;;-2.39;85.04;102298.59;105604;1293;76535;-57
2024/01/21 04:09:15;;;;;;;;;;;;;;;-2.43;85.51;102297.15;105519;1298;67481;-56
2024/01/21 04:12:01;;;;;;;;;;;;;;;-2.45;84.98;102294.14;105544;1296;71891;-56
2024/01/21 04:14:47;;;;;;;;;;;;;;;-2.47;85.05;102287.11;105535;1293;59370;-57
2024/01/21 04:17:33;;;;;;;;;;;;;;;-2.47;84.88;102285.95;105546;1297;59257;-57
2024/01/21 04:20:18;;;;;;;;;;;;;;;-2.49;85.56;102288.52;104536;1294;74404;-54
2024/01/21 04:23:05;;;;;;;;;;;;;;;-2.47;85.41;102291.00;104277;1296;69995;-56
2024/01/21 04:25:51;;;;;;;;;;;;;;;-2.49;86.48;102288.67;104246;1297;71346;-55
2024/01/21 04:28:37;;;;;;;;;;;;;;;-2.55;86.18;102292.86;104268;1293;61180;-56
2024/01/21 04:31:24;;;;;;;;;;;;;;;-2.59;86.26;102297.46;104217;1295;61172;-53
2024/01/21 04:34:10;;;;;;;;;;;;;;;-2.59;86.03;102302.24;104328;1298;73223;-54
2024/01/21 04:36:56;;;;;;;;;;;;;;;-2.56;86.59;102303.07;104268;1293;66295;-56
2024/01/21 04:39:42;;;;;;;;;;;;;;;-2.58;86.68;102297.72;104195;1293;72336;-53
2024/01/21 04:42:29;;;;;;;;;;;;;;;-2.57;86.66;102291.72;104209;1296;60594;-54
2024/01/21 04:45:16;;;;;;;;;;;;;;;-2.57;86.46;102289.52;104251;1293;61158;-56
2024/01/21 04:48:03;;;;;;;;;;;;;;;-2.62;86.24;102288.73;105136;1293;75642;-56
2024/01/21 04:50:48;;;;;;;;;;;;;;;-2.65;87.30;102295.40;105548;1294;67393;-57
2024/01/21 04:53:37;;;;;;;;;;;;;;;-2.68;87.12;102289.51;105571;1293;72341;-57
2024/01/21 04:56:23;;;;;;;;;;;;;;;-2.69;87.24;102292.98;105506;1293;59206;-57
2024/01/21 04:59:09;;;;;;;;;;;;;;;-2.70;86.32;102290.77;105585;1294;59264;-57
2024/01/21 05:01:55;;;;;;;;;;;;;;;-2.73;86.29;102286.32;105575;1293;74565;-56
2024/01/21 05:04:41;;;;;;;;;;;;;;;-2.76;86.73;102289.32;105570;1294;69279;-54
2024/01/21 05:07:27;;;;;;;;;;;;;;;-2.79;86.83;102289.14;105533;1294;71264;-57
2024/01/21 05:10:13;;;;;;;;;;;;;;;-2.78;86.20;102291.91;105514;1293;58959;-57
2024/01/21 05:12:59;;;;;;;;;;;;;;;-2.81;86.86;102296.94;105516;1294;59080;-57
2024/01/21 05:15:45;;;;;;;;;;;;;;;-2.84;86.66;102298.42;105555;1296;74428;-57
2024/01/21 05:18:30;;;;;;;;;;;;;;;-2.85;85.90;102301.42;105515;1298;68586;-57
2024/01/21 05:21:20;;;;;;;;;;;;;;;-2.89;85.91;102302.13;105600;1296;70610;-56
2024/01/21 05:24:06;;;;;;;;;;;;;;;-2.91;85.71;102301.02;105574;1293;59446;-57
2024/01/21 05:26:52;;;;;;;;;;;;;;;-2.93;85.79;102300.70;105518;1293;59195;-56
2024/01/21 05:29:41;;;;;;;;;;;;;;;-2.97;85.65;102304.45;105602;1293;73822;-57
2024/01/21 05:32:26;;;;;;;;;;;;;;;-3.02;86.46;102303.97;105534;1294;69084;-56
2024/01/21 05:35:13;;;;;;;;;;;;;;;-3.05;86.30;102308.34;105541;1294;72837;-57
2024/01/21 05:37:59;;;;;;;;;;;;;;;-3.08;85.96;102309.99;105609;1294;59793;-57
2024/01/21 05:40:45;;;;;;;;;;;;;;;-3.12;86.42;102309.91;105579;1294;59041;-56
2024/01/21 05:43:30;;;;;;;;;;;;;;;-3.17;86.42;102309.58;105437;1293;74004;-56
2024/01/21 05:46:16;;;;;;;;;;;;;;;-3.21;85.88;102308.64;105520;1293;67299;-56
2024/01/21 05:49:03;;;;;;;;;;;;;;;-3.26;86.11;102314.89;53943;1299;20001527;-57
2024/01/21 05:52:09;;;;;;;;;;;;;;;-3.27;85.85;102318.66;98196;1293;10063550;-55
2024/01/21 05:54:54;;;;;;;;;;;;;;;-3.27;85.71;102320.09;105557;1293;59275;-57
2024/01/21 05:57:40;;;;;;;;;;;;;;;-3.24;85.54;102314.16;105515;1293;73201;-58
2024/01/21 06:00:26;;;;;;;;;;;;;;;-3.25;85.51;102313.13;105549;1296;67393;-57
2024/01/21 06:03:12;;;;;;;;;;;;;;;-3.26;85.64;102312.70;105557;1297;71413;-57
2024/01/21 06:05:58;;;;;;;;;;;;;;;-3.33;85.63;102312.27;105467;1293;59073;-57
2024/01/21 06:08:44;;;;;;;;;;;;;;;-3.36;85.74;102312.03;105573;1294;59004;-57
2024/01/21 06:11:30;;;;;;;;;;;;;;;-3.41;85.62;102310.36;105604;1294;73500;-57
2024/01/21 06:14:16;;;;;;;;;;;;;;;-3.48;85.65;102315.45;105560;1296;67264;-57
2024/01/21 06:17:02;;;;;;;;;;;;;;;-3.52;85.47;102314.84;105564;1294;71381;-57
2024/01/21 06:19:48;;;;;;;;;;;;;;;-3.54;85.60;102315.33;104637;1294;61370;-56
2024/01/21 06:22:38;;;;;;;;;;;;;;;-3.55;85.39;102318.84;104240;1293;62014;-56
2024/01/21 06:25:24;;;;;;;;;;;;;;;-3.59;85.49;102317.67;104219;1296;73441;-57
2024/01/21 06:28:10;;;;;;;;;;;;;;;-3.67;85.17;102317.00;104256;1294;68945;-55
2024/01/21 06:30:56;;;;;;;;;;;;;;;-3.75;85.17;102315.14;104250;1299;72099;-56
2024/01/21 06:33:42;;;;;;;;;;;;;;;-3.83;85.18;102311.51;104223;1294;61173;-55
2024/01/21 06:36:28;;;;;;;;;;;;;;;-3.88;85.10;102309.82;104263;1293;61187;-55
2024/01/21 06:39:15;;;;;;;;;;;;;;;-3.97;85.05;102310.24;104716;1293;309780;-57
2024/01/21 06:42:01;;;;;;;;;;;;;;;-4.05;84.99;102305.60;105578;1294;68468;-57
2024/01/21 06:44:47;;;;;;;;;;;;;;;-4.11;84.95;102307.36;105601;1293;71438;-57
2024/01/21 06:47:32;;;;;;;;;;;;;;;-4.17;84.80;102312.49;105557;1294;58969;-55
2024/01/21 06:50:18;;;;;;;;;;;;;;;-4.22;84.79;102311.04;104659;1294;61249;-56
2024/01/21 06:53:05;;;;;;;;;;;;;;;-4.26;84.94;102313.94;104259;1293;74879;-57
2024/01/21 06:55:51;;;;;;;;;;;;;;;-4.28;85.24;102319.49;104293;1294;68416;-56
2024/01/21 06:58:37;;;;;;;;;;;;;;;-4.31;85.10;102322.15;104281;1298;71474;-55
2024/01/21 07:01:23;;;;;;;;;;;;;;;-4.34;85.00;102323.11;104228;1296;61319;-55
2024/01/21 07:04:09;;;;;;;;;;;;;;;-4.36;84.92;102322.79;104244;1298;61193;-54
2024/01/21 07:06:56;;;;;;;;;;;;;;;-4.38;84.89;102317.13;104189;1296;74035;-55
2024/01/21 07:09:42;;;;;;;;;;;;;;;-4.38;84.86;102305.48;104265;1298;67340;-56
2024/01/21 07:12:28;;;;;;;;;;;;;;;-4.42;84.64;102308.39;104233;1298;72106;-56
2024/01/21 07:15:14;;;;;;;;;;;;;;;-4.47;84.54;102310.21;104327;1298;61409;-56
2024/01/21 07:18:00;;;;;;;;;;;;;;;-4.53;84.51;102306.41;104282;1294;61256;-57
2024/01/21 07:20:47;;;;;;;;;;;;;;;-4.57;84.43;102312.37;104234;1296;72345;-58
2024/01/21 07:23:33;;;;;;;;;;;;;;;-4.57;84.41;102317.23;104231;1298;68377;-55
2024/01/21 07:26:22;;;;;;;;;;;;;;;-4.52;84.66;102318.95;104210;1294;71230;-57
2024/01/21 07:29:08;;;;;;;;;;;;;;;-4.42;84.70;102317.17;104233;1293;61497;-57
2024/01/21 07:31:55;;;;;;;;;;;;;;;-4.26;84.50;102318.14;104187;1299;61178;-59
2024/01/21 07:34:42;;;;;;;;;;;;;;;-4.07;84.15;102319.23;104193;1294;73059;-59
2024/01/21 07:37:28;;;;;;;;;;;;;;;-3.83;84.24;102311.02;104254;1296;67286;-58
2024/01/21 07:40:14;;;;;;;;;;;;;;;-3.60;84.01;102316.66;104265;1294;71265;-58
2024/01/21 07:43:00;;;;;;;;;;;;;;;-3.29;83.80;102318.92;104270;1297;60258;-58
2024/01/21 07:45:46;;;;;;;;;;;;;;;-3.13;82.90;102323.55;104278;1294;63251;-58
2024/01/21 07:48:32;;;;;;;;;;;;;;;-3.15;81.99;102318.49;104321;1298;73951;-59
2024/01/21 07:51:19;;;;;;;;;;;;;;;-3.19;82.79;102323.63;100588;1296;5002687;-58
2024/01/21 07:54:05;;;;;;;;;;;;;;;-3.20;81.52;102316.29;104319;1296;71068;-57
2024/01/21 07:56:51;;;;;;;;;;;;;;;-3.15;82.61;102312.90;104241;1294;61071;-58
2024/01/21 07:59:37;;;;;;;;;;;;;;;-3.03;82.30;102311.33;104248;1295;61159;-57
2024/01/21 08:02:27;;;;;;;;;;;;;;;-2.89;82.42;102307.19;104277;1298;74104;-60
2024/01/21 08:05:13;;;;;;;;;;;;;;;-2.88;81.32;102307.27;104261;1294;67847;-58
2024/01/21 08:07:59;;;;;;;;;;;;;;;-2.88;80.40;102306.92;104240;1297;71244;-59
2024/01/21 08:10:45;;;;;;;;;;;;;;;-2.75;80.91;102310.70;104338;1298;60885;-59
2024/01/21 08:13:32;;;;;;;;;;;;;;;-2.60;81.63;102312.95;104144;1294;63402;-60
2024/01/21 08:16:18;;;;;;;;;;;;;;;-2.58;81.57;102308.84;104247;1293;75007;-58
2024/01/21 08:19:04;;;;;;;;;;;;;;;-2.64;81.11;102309.02;104301;1298;69331;-59
2024/01/21 08:21:50;;;;;;;;;;;;;;;-2.73;80.65;102301.02;104245;1298;74022;-60
2024/01/21 08:24:36;;;;;;;;;;;;;;;-2.80;79.15;102292.94;104173;1298;61686;-61
2024/01/21 08:27:24;;;;;;;;;;;;;;;-2.80;80.82;102294.13;104199;1296;60072;-58
2024/01/21 08:30:10;;;;;;;;;;;;;;;-2.80;80.31;102297.54;104265;1294;73449;-58
2024/01/21 08:32:57;;;;;;;;;;;;;;;-2.73;79.14;102296.75;104291;1296;68074;-58
2024/01/21 08:35:43;;;;;;;;;;;;;;;-2.61;80.48;102304.14;104292;1298;71204;-58
2024/01/21 08:38:29;;;;;;;;;;;;;;;-2.44;79.21;102309.08;104249;1297;61169;-59
2024/01/21 08:41:15;;;;;;;;;;;;;;;-2.15;79.89;102310.58;104328;1293;62908;-59
2024/01/21 08:44:02;;;;;;;;;;;;;;;-1.91;76.54;102302.77;104332;1299;73299;-58
2024/01/21 08:46:48;;;;;;;;;;;;;;;-1.56;78.84;102304.72;104286;1298;67311;-58
2024/01/21 08:49:35;;;;;;;;;;;;;;;-1.11;78.58;102298.74;104305;1296;71186;-58
2024/01/21 08:52:21;;;;;;;;;;;;;;;-1.01;72.73;102295.27;104266;1299;61213;-56
2024/01/21 08:55:08;;;;;;;;;;;;;;;-0.93;74.77;102304.48;104311;1298;61138;-58
2024/01/21 08:57:54;;;;;;;;;;;;;;;-0.83;74.86;102307.14;104326;1296;73710;-57
2024/01/21 09:00:40;;;;;;;;;;;;;;;-0.58;75.68;102299.40;104365;1296;67343;-58
2024/01/21 09:03:26;;;;;;;;;;;;;;;-0.14;74.60;102298.10;104253;1298;71316;-58
2024/01/21 09:06:12;;;;;;;;;;;;;;;0.61;74.99;102293.70;104276;1299;61291;-58
2024/01/21 09:08:58;;;;;;;;;;;;;;;1.32;71.97;102287.73;104333;1296;61159;-59
2024/01/21 09:11:47;;;;;;;;;;;;;;;1.93;72.34;102289.73;104281;1294;74201;-58
2024/01/21 09:14:34;;;;;;;;;;;;;;;2.27;67.30;102288.04;104302;1298;68698;-58
2024/01/21 09:17:20;;;;;;;;;;;;;;;2.60;67.88;102292.36;104283;1293;71252;-56
2024/01/21 09:20:07;;;;;;;;;;;;;;;2.68;68.05;102285.73;104296;1298;59974;-57
2024/01/21 09:22:53;;;;;;;;;;;;;;;2.94;69.56;102280.38;104331;1294;61999;-58
2024/01/21 09:25:39;;;;;;;;;;;;;;;2.96;67.52;102274.16;104319;1294;75213;-61
2024/01/21 09:28:25;;;;;;;;;;;;;;;3.29;69.20;102278.41;104075;1295;281343;-55
2024/01/21 09:31:12;;;;;;;;;;;;;;;3.48;65.61;102278.81;104277;1298;74666;-58
2024/01/21 09:33:58;;;;;;;;;;;;;;;3.70;65.49;102281.17;104291;1294;61283;-55
2024/01/21 09:36:44;;;;;;;;;;;;;;;3.71;64.40;102282.42;104288;1298;61989;-57
2024/01/21 09:39:30;;;;;;;;;;;;;;;3.79;67.23;102285.96;104288;1298;72877;-56
2024/01/21 09:42:17;;;;;;;;;;;;;;;3.83;65.19;102279.64;104282;1293;67333;-54
2024/01/21 09:45:03;;;;;;;;;;;;;;;3.31;65.29;102268.75;105656;1298;71835;-58
2024/01/21 09:47:53;;;;;;;;;;;;;;;2.87;64.44;102271.55;105625;1293;59411;-55
2024/01/21 09:50:39;;;;;;;;;;;;;;;2.35;63.10;102273.59;105587;1298;60012;-54
2024/01/21 09:53:25;;;;;;;;;;;;;;;2.09;65.68;102276.00;105607;1298;74276;-55
2024/01/21 09:56:11;;;;;;;;;;;;;;;1.84;66.73;102275.92;105702;1293;67195;-55
2024/01/21 09:58:57;;;;;;;;;;;;;;;1.66;66.95;102273.20;105620;1293;71361;-55
2024/01/21 10:01:43;;;;;;;;;;;;;;;1.57;68.65;102268.88;105609;1293;59043;-54
2024/01/21 10:04:32;;;;;;;;;;;;;;;1.41;67.50;102267.60;105647;1295;58874;-55
2024/01/21 10:07:18;;;;;;;;;;;;;;;1.27;65.45;102257.59;105656;1293;74531;-54
2024/01/21 10:10:06;;;;;;;;;;;;;;;1.12;67.43;102249.36;87080;1298;5005190;-55
2024/01/21 10:12:52;;;;;;;;;;;;;;;0.97;67.06;102249.02;105499;1294;59013;-55
2024/01/21 10:15:38;;;;;;;;;;;;;;;0.92;67.49;102245.03;105669;1292;59182;-55
2024/01/21 10:18:25;;;;;;;;;;;;;;;0.82;66.52;102245.91;105616;1293;74621;-53
2024/01/21 10:21:11;;;;;;;;;;;;;;;0.77;68.21;102246.68;105639;1296;68596;-55
2024/01/21 10:23:57;;;;;;;;;;;;;;;0.74;66.48;102244.81;105617;1293;72422;-55
2024/01/21 10:26:43;;;;;;;;;;;;;;;0.67;66.82;102246.52;105619;1293;58983;-55
2024/01/21 10:29:30;;;;;;;;;;;;;;;0.67;67.07;102235.78;105636;1294;58765;-55
2024/01/21 10:32:17;;;;;;;;;;;;;;;0.66;67.76;102227.63;105647;1293;73162;-54
2024/01/21 10:35:03;;;;;;;;;;;;;;;0.65;66.73;102225.04;105601;1293;66309;-54
2024/01/21 10:37:49;;;;;;;;;;;;;;;0.72;68.47;102222.30;105577;1293;72585;-54
2024/01/21 10:40:35;;;;;;;;;;;;;;;0.79;67.27;102213.17;105481;1296;59889;-55
2024/01/21 10:43:21;;;;;;;;;;;;;;;0.84;68.84;102205.44;105539;1293;59020;-53
2024/01/21 10:46:07;;;;;;;;;;;;;;;0.92;69.00;102204.46;105537;1293;73428;-52
2024/01/21 10:48:57;;;;;;;;;;;;;;;0.94;69.62;102205.09;105565;1293;68862;-52
2024/01/21 10:51:44;;;;;;;;;;;;;;;0.96;69.13;102208.59;105603;1292;72556;-55
2024/01/21 10:54:30;;;;;;;;;;;;;;;0.94;70.00;102209.52;105577;1294;58978;-55
2024/01/21 10:57:17;;;;;;;;;;;;;;;0.96;70.26;102203.30;105501;1298;59353;-56
2024/01/21 11:00:06;;;;;;;;;;;;;;;0.97;69.60;102201.16;105657;1294;73631;-53
2024/01/21 11:03:12;;;;;;;;;;;;;;;0.96;69.87;102201.30;105579;1293;67999;-54
2024/01/21 11:06:00;;;;;;;;;;;;;;;1.04;69.62;102200.61;105535;1294;71511;-53
2024/01/21 11:08:49;;;;;;;;;;;;;;;1.13;70.15;102200.35;105607;1293;59020;-57
2024/01/21 11:11:44;;;;;;;;;;;;;;;1.21;70.32;102193.92;105609;1298;60188;-57
2024/01/21 11:14:32;;;;;;;;;;;;;;;1.27;69.73;102188.00;105708;1297;74440;-56
2024/01/21 11:17:18;;;;;;;;;;;;;;;1.33;69.50;102183.67;105742;1292;69440;-55
2024/01/21 11:20:04;;;;;;;;;;;;;;;1.34;69.65;102181.50;105551;1294;71245;-55
2024/01/21 11:22:50;;;;;;;;;;;;;;;1.36;69.35;102180.88;105609;1296;59179;-55
2024/01/21 11:25:36;;;;;;;;;;;;;;;1.41;70.05;102185.86;105543;1296;58797;-55
2024/01/21 11:28:27;;;;;;;;;;;;;;;1.49;69.55;102194.27;105524;1296;73212;-55
2024/01/21 11:31:13;;;;;;;;;;;;;;;1.59;69.99;102196.23;105647;1294;67490;-56
2024/01/21 11:34:03;;;;;;;;;;;;;;;1.71;69.87;102190.64;105661;1293;70525;-55
2024/01/21 11:36:50;;;;;;;;;;;;;;;1.74;68.87;102186.52;105464;1293;59260;-53
2024/01/21 11:39:36;;;;;;;;;;;;;;;1.81;70.00;102170.03;105520;1298;59322;-56
2024/01/21 11:42:23;;;;;;;;;;;;;;;1.89;70.18;102160.32;105602;1298;73151;-55
2024/01/21 11:45:09;;;;;;;;;;;;;;;1.90;70.32;102153.59;105565;1297;67975;-55
2024/01/21 11:47:57;;;;;;;;;;;;;;;1.87;69.87;102144.09;105529;1292;72007;-54
2024/01/21 11:50:43;;;;;;;;;;;;;;;1.86;70.11;102137.60;105578;1293;59352;-56
2024/01/21 11:53:32;;;;;;;;;;;;;;;1.85;70.23;102132.80;105612;1293;59380;-55
2024/01/21 11:56:18;;;;;;;;;;;;;;;1.86;69.26;102127.42;105579;1296;74560;-55
2024/01/21 11:59:06;;;;;;;;;;;;;;;1.91;70.23;102118.63;105619;1293;67400;-55
2024/01/21 12:01:54;;;;;;;;;;;;;;;1.98;70.31;102117.54;105603;1293;72735;-55
2024/01/21 12:04:40;;;;;;;;;;;;;;;2.01;70.49;102107.14;105676;1296;58728;-56
2024/01/21 12:07:27;;;;;;;;;;;;;;;2.05;70.01;102106.80;105656;1293;59465;-54
2024/01/21 12:10:13;;;;;;;;;;;;;;;2.08;70.53;102100.79;105629;1293;73928;-55
2024/01/21 12:12:59;;;;;;;;;;;;;;;2.09;70.47;102090.28;105602;1293;67319;-56
2024/01/21 12:15:48;;;;;;;;;;;;;;;2.12;70.35;102090.89;105561;1293;71791;-55
2024/01/21 12:18:41;;;;;;;;;;;;;;;2.15;71.01;102083.87;105442;1296;59365;-56
2024/01/21 12:21:27;;;;;;;;;;;;;;;2.16;70.79;102078.30;105568;1293;58815;-53
2024/01/21 12:24:13;;;;;;;;;;;;;;;2.10;70.47;102077.73;105574;1293;74602;-56
2024/01/21 12:26:59;;;;;;;;;;;;;;;2.01;70.53;102071.58;105553;1293;68084;-55
2024/01/21 12:29:45;;;;;;;;;;;;;;;1.97;70.82;102077.06;105541;1293;71368;-55
2024/01/21 12:32:31;;;;;;;;;;;;;;;1.91;70.97;102075.77;105573;1296;59242;-55
2024/01/21 12:35:17;;;;;;;;;;;;;;;1.85;71.03;102069.05;105644;1293;59331;-56
2024/01/21 12:38:03;;;;;;;;;;;;;;;1.77;71.16;102065.64;105598;1296;74490;-55
2024/01/21 12:40:49;;;;;;;;;;;;;;;1.75;71.32;102073.00;105596;1293;68622;-55
2024/01/21 12:43:35;;;;;;;;;;;;;;;1.76;71.48;102069.16;105530;1293;71442;-56
2024/01/21 12:46:21;;;;;;;;;;;;;;;1.77;71.69;102067.30;105526;1295;59033;-52
2024/01/21 12:49:07;;;;;;;;;;;;;;;1.79;71.83;102055.36;105531;1299;60365;-56
2024/01/21 12:51:53;;;;;;;;;;;;;;;1.82;71.94;102049.02;101627;1293;5003171;-54
2024/01/21 12:54:39;;;;;;;;;;;;;;;1.83;71.96;102054.64;105559;1293;72544;-55
2024/01/21 12:57:25;;;;;;;;;;;;;;;1.85;72.04;102056.77;105611;1293;59010;-55
2024/01/21 13:00:11;;;;;;;;;;;;;;;1.84;72.07;102051.98;105549;1295;60153;-54
2024/01/21 13:02:57;;;;;;;;;;;;;;;1.86;72.17;102044.25;105578;1293;73156;-53
2024/01/21 13:05:43;;;;;;;;;;;;;;;1.87;72.24;102035.13;105556;1296;69587;-55
2024/01/21 13:08:40;;;;;;;;;;;;;;;1.87;72.23;102030.01;98322;1293;10001878;-54
2024/01/21 13:11:26;;;;;;;;;;;;;;;1.86;72.14;102025.91;105710;1293;60022;-56
2024/01/21 13:14:12;;;;;;;;;;;;;;;1.85;72.20;102014.63;105589;1293;74475;-56
2024/01/21 13:16:58;;;;;;;;;;;;;;;1.86;72.34;102015.16;105590;1295;68053;-55
2024/01/21 13:19:44;;;;;;;;;;;;;;;1.87;72.21;102009.95;105613;1293;72632;-56
2024/01/21 13:22:30;;;;;;;;;;;;;;;1.88;72.16;102007.09;105628;1293;59003;-53
2024/01/21 13:25:23;;;;;;;;;;;;;;;1.87;72.48;102012.17;105572;1297;59583;-56
2024/01/21 13:28:17;;;;;;;;;;;;;;;1.89;72.24;102016.50;105624;1293;74132;-55
2024/01/21 13:31:03;;;;;;;;;;;;;;;1.94;72.02;102004.63;105572;1293;66489;-56
2024/01/21 13:33:48;;;;;;;;;;;;;;;1.97;71.46;102011.73;105618;1293;71154;-55
2024/01/21 13:36:35;;;;;;;;;;;;;;;2.08;71.63;102019.97;105609;1293;59136;-56
2024/01/21 13:39:24;;;;;;;;;;;;;;;2.12;71.62;102020.80;105644;1293;59443;-55
2024/01/21 13:42:10;;;;;;;;;;;;;;;2.13;71.34;102016.09;105610;1296;74980;-53
2024/01/21 13:44:56;;;;;;;;;;;;;;;2.15;71.59;101998.65;105590;1293;68992;-55
2024/01/21 13:47:42;;;;;;;;;;;;;;;2.18;71.52;101985.85;105635;1293;71907;-55
2024/01/21 13:50:28;;;;;;;;;;;;;;;2.15;71.60;101977.41;105559;1293;59462;-55
2024/01/21 13:53:14;;;;;;;;;;;;;;;2.17;71.31;101967.41;105630;1293;60549;-54
2024/01/21 13:56:00;;;;;;;;;;;;;;;2.16;71.52;101960.27;105371;1293;74500;-55
2024/01/21 13:58:46;;;;;;;;;;;;;;;2.15;71.59;101960.21;105606;1296;68491;-55
2024/01/21 14:01:32;;;;;;;;;;;;;;;2.16;71.45;101949.52;105622;1293;71117;-56
2024/01/21 14:04:27;;;;;;;;;;;;;;;2.16;71.33;101933.73;105600;1293;59240;-56
2024/01/21 14:07:13;;;;;;;;;;;;;;;2.16;71.27;101921.30;105603;1294;59227;-56
2024/01/21 14:09:59;;;;;;;;;;;;;;;2.12;71.05;101929.13;105678;1293;73984;-56